Time;durP1;ratioP1;P1;durP2;ratioP2;P2;SDS_P1;SDS_P2;PMS_P1;PMS_P2;Temp;Humidity;BMP_temperature;BMP_pressure;BME280_temperature;BME280_humidity;BME280_pressure;Samples;Min_cycle;Max_cycle;Signal;HPM_P1;HPM_P2
2022/06/14 00:00:55;;;;;;;8.60;2.17;;;;;;;8.38;93.13;102587.28;5053065;28;20040;-72
2022/06/14 00:03:30;;;;;;;11.32;2.15;;;;;;;8.36;92.27;102587.38;5053195;28;20094;-72
2022/06/14 00:05:58;;;;;;;10.77;2.38;;;;;;;8.34;92.81;102589.25;5052977;28;20048;-72
2022/06/14 00:08:25;;;;;;;7.22;1.92;;;;;;;8.31;92.34;102581.44;5052760;28;20102;-72
2022/06/14 00:10:53;;;;;;;6.95;2.25;;;;;;;8.26;91.60;102579.03;5052601;28;20067;-72
2022/06/14 00:13:19;;;;;;;6.53;2.47;;;;;;;8.26;93.01;102580.84;5052673;28;20488;-71
2022/06/14 00:15:45;;;;;;;8.98;2.00;;;;;;;8.28;94.53;102584.25;5050932;28;20036;-71
2022/06/14 00:18:13;;;;;;;6.68;2.28;;;;;;;8.25;94.25;102579.13;5052401;28;20461;-71
2022/06/14 00:20:39;;;;;;;6.15;2.60;;;;;;;8.25;95.55;102573.81;5052650;28;20084;-71
2022/06/14 00:23:04;;;;;;;4.18;1.83;;;;;;;8.21;95.53;102578.44;5050826;28;20033;-71
2022/06/14 00:25:36;;;;;;;5.50;2.00;;;;;;;8.18;94.69;102585.69;5052465;28;20056;-71
2022/06/14 00:28:02;;;;;;;5.03;1.95;;;;;;;8.12;93.53;102584.19;5050535;28;20124;-72
2022/06/14 00:30:29;;;;;;;5.00;1.75;;;;;;;8.08;93.54;102583.53;5052562;28;20345;-71
2022/06/14 00:32:54;;;;;;;7.15;2.13;;;;;;;8.06;94.67;102587.19;5051909;28;20037;-72
2022/06/14 00:35:19;;;;;;;10.02;2.28;;;;;;;8.07;96.12;102584.44;5050880;28;20064;-71
2022/06/14 00:37:45;;;;;;;8.13;2.00;;;;;;;8.06;96.46;102585.41;5052256;28;20065;-72
2022/06/14 00:40:14;;;;;;;7.72;1.85;;;;;;;8.03;96.72;102582.03;5052104;28;20033;-71
2022/06/14 00:42:40;;;;;;;6.88;1.95;;;;;;;8.02;96.53;102588.31;5052093;28;20060;-71
2022/06/14 00:45:11;;;;;;;4.07;1.80;;;;;;;8.01;97.14;102582.13;5052529;28;20036;-71
2022/06/14 00:47:42;;;;;;;5.15;1.85;;;;;;;7.99;96.64;102580.50;5052348;28;20114;-71
2022/06/14 00:50:24;;;;;;;4.40;1.70;;;;;;;7.93;95.08;102577.22;5051698;28;20029;-72
2022/06/14 00:52:56;;;;;;;4.20;1.83;;;;;;;7.93;96.07;102579.03;5052300;28;20040;-71
2022/06/14 00:55:32;;;;;;;10.07;2.17;;;;;;;7.93;96.80;102571.91;5052280;28;20085;-71
2022/06/14 00:58:10;;;;;;;6.05;2.00;;;;;;;7.90;96.42;102576.53;5052268;28;20106;-71
2022/06/14 01:01:01;;;;;;;8.88;1.83;;;;;;;7.87;95.45;102577.53;5052424;28;20029;-71
2022/06/14 01:03:43;;;;;;;8.73;2.20;;;;;;;7.86;96.92;102564.38;5047794;28;20177;-71
2022/06/14 01:06:25;;;;;;;6.47;1.98;;;;;;;7.84;97.94;102558.31;5052081;28;20107;-72
2022/06/14 01:09:20;;;;;;;6.70;2.65;;;;;;;7.82;97.36;102568.09;5051600;28;20025;-71
2022/06/14 01:12:03;;;;;;;5.60;2.55;;;;;;;7.82;98.70;102571.59;5050170;28;20418;-71
2022/06/14 01:14:52;;;;;;;6.85;3.05;;;;;;;7.79;99.11;102562.97;5051789;28;20037;-71
2022/06/14 01:17:18;;;;;;;5.68;2.08;;;;;;;7.72;97.96;102563.28;5040789;28;20047;-71
2022/06/14 01:19:44;;;;;;;3.33;1.90;;;;;;;7.66;96.78;102558.31;5051529;28;20037;-71
2022/06/14 01:22:09;;;;;;;8.70;2.78;;;;;;;7.65;97.18;102558.38;5051555;28;20455;-71
2022/06/14 01:24:36;;;;;;;7.25;2.25;;;;;;;7.64;97.32;102560.16;5050901;28;20150;-71
2022/06/14 01:27:04;;;;;;;10.82;2.20;;;;;;;7.59;97.81;102554.25;5051362;28;20082;-72
2022/06/14 01:29:33;;;;;;;6.00;1.77;;;;;;;7.58;97.62;102547.22;5049758;28;20484;-71
2022/06/14 01:32:01;;;;;;;4.68;1.90;;;;;;;7.58;97.80;102552.53;5050875;28;20052;-72
2022/06/14 01:34:30;;;;;;;8.02;1.92;;;;;;;7.58;98.67;102550.75;5051133;28;20053;-71
2022/06/14 01:36:58;;;;;;;4.20;1.80;;;;;;;7.58;99.03;102539.28;5051484;28;20029;-76
2022/06/14 01:39:24;;;;;;;6.40;1.88;;;;;;;7.58;98.97;102544.56;5051148;28;20096;-73
2022/06/14 01:41:59;;;;;;;5.18;2.08;;;;;;;7.59;99.32;102535.69;5050778;28;20047;-71
2022/06/14 01:44:51;;;;;;;5.78;2.08;;;;;;;7.59;99.86;102530.41;5050971;28;20051;-71
2022/06/14 01:48:07;;;;;;;11.93;2.28;;;;;;;7.54;98.62;102522.69;5050949;28;20414;-71
2022/06/14 01:53:27;;;;;;;3.67;1.83;;;;;;;7.52;99.46;102534.28;5050531;28;20377;-71
2022/06/14 01:56:09;;;;;;;10.25;2.22;;;;;;;7.47;98.06;102523.94;5050459;28;20060;-71
2022/06/14 01:58:53;;;;;;;6.13;2.28;;;;;;;7.48;99.31;102525.66;5050967;28;20037;-71
2022/06/14 02:01:26;;;;;;;3.90;1.85;;;;;;;7.51;100.00;102527.28;5050369;28;20036;-71
2022/06/14 02:07:07;;;;;;;5.25;2.30;;;;;;;7.45;100.00;102527.59;5051170;28;20063;-71
2022/06/14 02:09:35;;;;;;;12.30;2.50;;;;;;;7.40;100.00;102527.81;5050204;28;20061;-71
2022/06/14 02:12:05;;;;;;;4.75;1.85;;;;;;;7.35;100.00;102527.22;5050254;28;20056;-71
2022/06/14 02:14:36;;;;;;;6.10;2.20;;;;;;;7.32;99.61;102533.50;5050074;28;20028;-71
2022/06/14 02:17:09;;;;;;;5.10;1.90;;;;;;;7.29;99.10;102527.53;5050067;28;20521;-72
2022/06/14 02:19:45;;;;;;;4.25;1.80;;;;;;;7.24;98.16;102525.94;5050443;28;20032;-71
2022/06/14 02:22:16;;;;;;;5.90;1.90;;;;;;;7.22;97.38;102521.66;5050249;28;20083;-72
2022/06/14 02:24:47;;;;;;;6.95;2.00;;;;;;;7.26;99.02;102531.16;5049459;28;20405;-72
2022/06/14 02:27:37;;;;;;;4.38;2.00;;;;;;;7.27;100.00;102530.25;5050661;28;20070;-72
2022/06/14 02:30:11;;;;;;;2.17;1.70;;;;;;;7.20;99.22;102528.81;5050342;28;20095;-73
2022/06/14 02:32:43;;;;;;;9.02;2.40;;;;;;;7.23;99.64;102524.22;5049088;28;20029;-71
2022/06/14 02:35:19;;;;;;;5.68;1.88;;;;;;;7.23;100.00;102523.38;5050255;28;20029;-71
2022/06/14 02:37:53;;;;;;;5.47;1.98;;;;;;;7.18;100.00;102520.09;5050371;28;20030;-71
2022/06/14 02:40:31;;;;;;;4.95;1.92;;;;;;;7.13;100.00;102522.97;5050546;28;20037;-72
2022/06/14 02:43:01;;;;;;;7.05;2.30;;;;;;;7.12;100.00;102525.69;5050360;28;20079;-71
2022/06/14 02:45:32;;;;;;;5.93;2.10;;;;;;;7.12;100.00;102515.97;5050245;28;20047;-71
2022/06/14 02:48:07;;;;;;;4.68;2.08;;;;;;;7.09;100.00;102515.25;5048896;28;20527;-71
2022/06/14 02:50:45;;;;;;;5.07;2.35;;;;;;;7.12;100.00;102515.97;5049955;28;20118;-72
2022/06/14 02:53:20;;;;;;;5.28;2.20;;;;;;;7.09;100.00;102521.41;5050414;28;20036;-72
2022/06/14 02:55:52;;;;;;;7.57;2.25;;;;;;;7.05;100.00;102515.41;5050101;28;20430;-72
2022/06/14 02:58:23;;;;;;;8.18;2.38;;;;;;;7.08;100.00;102511.75;5050470;28;20116;-72
2022/06/14 03:01:05;;;;;;;5.18;2.25;;;;;;;7.10;100.00;102523.13;5050013;28;20116;-71
2022/06/14 03:03:44;;;;;;;4.07;2.00;;;;;;;7.04;100.00;102512.84;5050393;28;20044;-72
2022/06/14 03:06:52;;;;;;;4.35;2.22;;;;;;;7.01;100.00;102518.28;5049910;28;20029;-72
2022/06/14 03:09:23;;;;;;;5.50;2.30;;;;;;;7.04;100.00;102518.97;5049965;28;20527;-72
2022/06/14 03:11:52;;;;;;;;;;;;;;;7.02;100.00;102520.00;5050611;28;20109;-72
2022/06/14 03:14:35;;;;;;;4.47;2.05;;;;;;;6.97;100.00;102516.69;5049841;28;19924;-72
2022/06/14 03:17:23;;;;;;;8.85;2.92;;;;;;;6.95;100.00;102506.19;5049699;28;20048;-72
2022/06/14 03:20:11;;;;;;;4.07;2.40;;;;;;;6.96;100.00;102515.00;5050053;28;20299;-72
2022/06/14 03:22:43;;;;;;;4.05;2.10;;;;;;;6.93;100.00;102508.06;5050138;28;20425;-72
2022/06/14 03:25:25;;;;;;;6.20;2.85;;;;;;;6.98;100.00;102510.50;5049530;28;20449;-74
2022/06/14 03:27:57;;;;;;;7.28;3.25;;;;;;;7.01;100.00;102505.88;5053477;28;20049;-72
2022/06/14 03:30:48;;;;;;;10.38;2.80;;;;;;;7.03;100.00;102504.03;5053616;28;20112;-71
2022/06/14 03:33:33;;;;;;;7.10;2.75;;;;;;;6.99;100.00;102506.91;5053298;28;20028;-72
2022/06/14 03:35:59;;;;;;;4.75;2.05;;;;;;;6.91;100.00;102507.25;5053310;28;20089;-71
2022/06/14 03:38:38;;;;;;;5.00;2.28;;;;;;;6.88;100.00;102507.41;5053197;28;20119;-71
2022/06/14 03:41:06;;;;;;;5.15;2.40;;;;;;;6.90;100.00;102508.22;5053137;28;20109;-71
2022/06/14 03:43:34;;;;;;;6.90;2.70;;;;;;;6.94;100.00;102520.38;5053325;28;20029;-72
2022/06/14 03:46:16;;;;;;;8.05;2.45;;;;;;;7.00;100.00;102516.56;5053540;28;20032;-72
2022/06/14 03:48:46;;;;;;;4.30;1.95;;;;;;;6.97;100.00;102512.28;5053448;28;20025;-72
2022/06/14 03:51:35;;;;;;;5.63;2.40;;;;;;;7.00;100.00;102517.44;5053386;28;20445;-73
2022/06/14 03:54:45;;;;;;;3.72;1.95;;;;;;;7.01;100.00;102512.97;5051508;28;20047;-71
2022/06/14 03:57:24;;;;;;;5.55;2.15;;;;;;;7.01;100.00;102520.94;5035710;28;20055;-72
2022/06/14 03:59:56;;;;;;;6.13;2.53;;;;;;;7.00;100.00;102506.84;5052746;28;20033;-72
2022/06/14 04:02:53;;;;;;;6.32;2.35;;;;;;;7.07;100.00;102512.69;5052375;28;20033;-72
2022/06/14 04:05:48;;;;;;;8.23;2.67;;;;;;;7.13;100.00;102519.47;5052275;28;20037;-72
2022/06/14 04:08:17;;;;;;;3.08;2.10;;;;;;;7.12;100.00;102515.09;5052768;28;20044;-73
2022/06/14 04:10:48;;;;;;;4.53;2.42;;;;;;;7.10;100.00;102517.81;5052806;28;20345;-72
2022/06/14 04:13:30;;;;;;;7.63;2.42;;;;;;;7.12;100.00;102517.75;5052672;28;20182;-72
2022/06/14 04:16:26;;;;;;;3.55;1.83;;;;;;;7.14;100.00;102515.91;5052174;28;20536;-72
2022/06/14 04:19:20;;;;;;;5.57;2.03;;;;;;;7.18;100.00;102520.09;5052924;28;20044;-72
2022/06/14 04:22:00;;;;;;;4.22;2.08;;;;;;;7.23;100.00;102523.38;5053065;28;20027;-71
2022/06/14 04:24:25;;;;;;;4.47;2.40;;;;;;;7.27;100.00;102509.06;5052736;28;20087;-72
2022/06/14 04:27:09;;;;;;;5.97;2.90;;;;;;;7.31;100.00;102517.69;5052428;28;20025;-73
2022/06/14 04:29:46;;;;;;;2.80;1.83;;;;;;;7.35;100.00;102511.31;5052406;28;20025;-72
2022/06/14 04:32:33;;;;;;;7.10;2.40;;;;;;;7.41;100.00;102513.66;5052713;28;20117;-72
2022/06/14 04:35:07;;;;;;;3.50;2.10;;;;;;;7.47;100.00;102517.78;5052558;28;20035;-72
2022/06/14 04:37:42;;;;;;;4.18;2.17;;;;;;;7.51;100.00;102511.38;5051977;28;20124;-73
2022/06/14 04:40:13;;;;;;;5.00;2.33;;;;;;;7.58;100.00;102512.78;5052127;28;20104;-72
2022/06/14 04:42:45;;;;;;;4.57;2.20;;;;;;;7.63;100.00;102521.38;5052270;28;20112;-72
2022/06/14 04:45:19;;;;;;;3.30;2.38;;;;;;;7.71;100.00;102518.31;5052532;28;20095;-72
2022/06/14 04:47:57;;;;;;;7.95;2.50;;;;;;;7.82;100.00;102523.06;5052471;28;20095;-72
2022/06/14 04:50:32;;;;;;;4.53;2.10;;;;;;;7.90;100.00;102521.72;5050874;28;20025;-71
2022/06/14 04:53:08;;;;;;;5.88;2.72;;;;;;;7.99;100.00;102523.03;5052276;28;20119;-71
2022/06/14 04:55:44;;;;;;;4.70;2.50;;;;;;;8.09;100.00;102526.91;5050003;28;20049;-73
2022/06/14 04:58:16;;;;;;;6.03;2.30;;;;;;;8.19;100.00;102527.25;5052089;28;20029;-72
2022/06/14 05:00:57;;;;;;;5.10;2.00;;;;;;;8.31;100.00;102533.72;5052032;28;20033;-71
2022/06/14 05:03:41;;;;;;;6.53;2.45;;;;;;;8.39;100.00;102526.22;5051852;28;20075;-72
2022/06/14 05:06:29;;;;;;;5.82;2.60;;;;;;;8.52;100.00;102526.41;5051865;28;20104;-71
2022/06/14 05:09:00;;;;;;;2.95;2.10;;;;;;;8.63;100.00;102525.84;5051768;28;20033;-72
2022/06/14 05:11:32;;;;;;;7.80;2.45;;;;;;;8.74;100.00;102523.41;5051714;28;20029;-71
2022/06/14 05:14:08;;;;;;;4.13;2.30;;;;;;;8.89;100.00;102519.03;5051549;28;20051;-72
2022/06/14 05:16:59;;;;;;;4.60;2.30;;;;;;;9.08;100.00;102523.31;5051345;28;20067;-71
2022/06/14 05:19:31;;;;;;;3.88;2.20;;;;;;;9.24;100.00;102516.19;5051608;28;20067;-72
2022/06/14 05:22:08;;;;;;;4.15;2.33;;;;;;;9.39;100.00;102522.41;5050892;28;20414;-72
2022/06/14 05:24:35;;;;;;;5.57;3.03;;;;;;;9.56;100.00;102526.69;5051448;28;20421;-71
2022/06/14 05:27:16;;;;;;;5.60;2.65;;;;;;;9.75;100.00;102522.94;5051182;28;20041;-71
2022/06/14 05:29:55;;;;;;;5.10;2.90;;;;;;;9.98;100.00;102517.06;5051189;28;20166;-71
2022/06/14 05:32:37;;;;;;;8.82;3.65;;;;;;;10.23;100.00;102515.56;5051508;28;20040;-72
2022/06/14 05:35:07;;;;;;;8.77;3.40;;;;;;;10.55;100.00;102516.22;5051086;28;20029;-72
2022/06/14 05:37:48;;;;;;;9.43;4.60;;;;;;;10.85;100.00;102514.34;5051525;28;20035;-72
2022/06/14 05:40:20;;;;;;;4.88;3.10;;;;;;;11.18;100.00;102521.94;5050741;28;20088;-72
2022/06/14 05:42:55;;;;;;;12.30;2.90;;;;;;;11.51;100.00;102514.41;5050895;28;20036;-71
2022/06/14 05:45:23;;;;;;;5.28;2.20;;;;;;;11.83;100.00;102514.88;5050799;28;20124;-72
2022/06/14 05:47:54;;;;;;;5.78;2.40;;;;;;;12.13;97.61;102513.72;5050798;28;20079;-72
2022/06/14 05:50:29;;;;;;;9.95;2.80;;;;;;;12.40;92.50;102518.91;5050401;28;20196;-71
2022/06/14 05:53:15;;;;;;;6.43;2.47;;;;;;;12.70;91.19;102514.97;5050564;28;20033;-72
2022/06/14 05:55:47;;;;;;;5.65;2.17;;;;;;;13.03;89.67;102524.13;5050332;28;20498;-72
2022/06/14 05:58:33;;;;;;;9.48;2.25;;;;;;;13.34;84.67;102528.06;5050378;28;20083;-72
2022/06/14 06:01:16;;;;;;;6.13;2.28;;;;;;;13.71;86.83;102522.59;5050073;28;20037;-72
2022/06/14 06:03:52;;;;;;;10.05;2.67;;;;;;;13.96;79.29;102526.03;5049983;28;20468;-73
2022/06/14 06:06:24;;;;;;;7.57;2.60;;;;;;;14.24;76.49;102526.50;5050145;28;20112;-72
2022/06/14 06:09:07;;;;;;;11.57;2.42;;;;;;;14.63;75.98;102533.22;5050462;28;20148;-74
2022/06/14 06:11:43;;;;;;;10.57;2.50;;;;;;;15.03;73.34;102529.06;5050007;28;20112;-72
2022/06/14 06:14:17;;;;;;;4.35;2.20;;;;;;;15.45;71.49;102521.09;5050208;28;20029;-72
2022/06/14 06:17:17;;;;;;;5.63;2.17;;;;;;;15.73;66.95;102529.47;5049882;28;20021;-71
2022/06/14 06:19:54;;;;;;;9.10;2.15;;;;;;;16.06;68.87;102534.75;5048337;28;20094;-71
2022/06/14 06:22:33;;;;;;;8.15;2.30;;;;;;;16.16;67.37;102531.13;5050139;28;20100;-71
2022/06/14 06:25:13;;;;;;;5.15;2.22;;;;;;;16.24;65.93;102540.34;5049766;28;20372;-71
2022/06/14 06:27:45;;;;;;;10.30;2.65;;;;;;;16.31;64.91;102536.97;5049420;28;20083;-71
2022/06/14 06:30:23;;;;;;;6.93;2.42;;;;;;;16.36;65.40;102540.13;5049850;28;20345;-70
2022/06/14 06:32:49;;;;;;;13.38;2.50;;;;;;;16.36;64.29;102533.88;5049841;28;20025;-70
2022/06/14 06:35:14;;;;;;;6.60;2.17;;;;;;;16.29;62.87;102543.50;5049849;28;20117;-70
2022/06/14 06:37:49;;;;;;;7.63;2.33;;;;;;;16.35;64.09;102533.06;5049890;28;20029;-70
2022/06/14 06:40:22;;;;;;;7.38;2.10;;;;;;;16.48;63.87;102546.25;5049807;28;20130;-70
2022/06/14 06:43:10;;;;;;;5.88;1.50;;;;;;;16.52;58.44;102542.28;5049560;28;20064;-70
2022/06/14 06:45:40;;;;;;;6.78;1.77;;;;;;;16.72;59.36;102548.56;5049925;28;20048;-71
2022/06/14 06:48:11;;;;;;;5.70;1.50;;;;;;;16.86;58.85;102544.63;5049837;28;20111;-70
2022/06/14 06:50:45;;;;;;;;;;;;;;;16.92;58.80;102543.25;5050515;28;20032;-71
2022/06/14 06:53:19;;;;;;;3.17;1.50;;;;;;;17.03;56.92;102542.28;5048961;28;19924;-71
2022/06/14 06:56:17;;;;;;;8.60;1.90;;;;;;;17.09;56.83;102539.91;5049950;28;20053;-71
2022/06/14 06:58:56;;;;;;;5.97;1.60;;;;;;;17.20;57.52;102549.66;5049912;28;20037;-69
2022/06/14 07:01:31;;;;;;;5.05;1.48;;;;;;;17.28;54.11;102546.25;5050838;28;20048;-69
2022/06/14 07:04:07;;;;;;;7.88;1.73;;;;;;;17.48;51.99;102546.25;5053912;28;20479;-70
2022/06/14 07:06:43;;;;;;;6.22;1.90;;;;;;;17.39;53.75;102545.25;5052703;28;20040;-72
2022/06/14 07:09:21;;;;;;;7.18;1.67;;;;;;;17.45;52.30;102550.94;5054278;28;20158;-71
2022/06/14 07:11:55;;;;;;;4.32;1.50;;;;;;;17.50;51.36;102547.81;5053632;28;20456;-72
2022/06/14 07:14:39;;;;;;;3.35;2.03;;;;;;;17.61;52.21;102552.16;5053671;28;20032;-70
2022/06/14 07:17:19;;;;;;;3.22;1.55;;;;;;;17.72;50.74;102552.03;5053631;28;20096;-72
2022/06/14 07:20:04;;;;;;;2.95;1.50;;;;;;;17.88;50.62;102546.00;5053446;28;20025;-69
2022/06/14 07:22:55;;;;;;;8.48;2.33;;;;;;;17.92;48.32;102541.22;5052631;28;20047;-70
2022/06/14 07:25:24;;;;;;;3.83;1.70;;;;;;;18.04;49.18;102537.34;5053909;28;20037;-70
2022/06/14 07:28:01;;;;;;;5.75;1.65;;;;;;;18.20;50.44;102543.94;5053217;28;20059;-70
2022/06/14 07:30:34;;;;;;;4.20;1.70;;;;;;;18.33;48.58;102539.94;5053243;28;20110;-72
2022/06/14 07:33:01;;;;;;;9.63;2.00;;;;;;;18.21;49.79;102551.88;5053499;28;20029;-70
2022/06/14 07:35:40;;;;;;;4.03;1.73;;;;;;;18.38;50.98;102549.44;5051483;28;20036;-70
2022/06/14 07:38:10;;;;;;;9.70;1.73;;;;;;;18.56;48.51;102544.94;5053236;28;20025;-70
2022/06/14 07:40:49;;;;;;;3.90;1.42;;;;;;;18.77;47.31;102547.34;5053565;28;20156;-71
2022/06/14 07:43:44;;;;;;;6.95;1.42;;;;;;;18.94;46.06;102548.38;5053482;28;20029;-70
2022/06/14 07:46:14;;;;;;;3.30;1.48;;;;;;;19.15;44.99;102541.84;5042349;28;20456;-71
2022/06/14 07:49:02;;;;;;;3.50;1.38;;;;;;;19.36;45.24;102546.91;5053339;28;20025;-71
2022/06/14 07:51:47;;;;;;;4.95;1.77;;;;;;;19.52;43.96;102543.50;5052896;28;20074;-70
2022/06/14 07:54:31;;;;;;;5.85;1.58;;;;;;;19.43;42.81;102541.75;5052501;28;20388;-70
2022/06/14 07:57:12;;;;;;;3.15;1.30;;;;;;;19.69;41.02;102548.03;5053223;28;20429;-70
2022/06/14 07:59:44;;;;;;;4.40;1.30;;;;;;;19.63;44.20;102537.88;5053108;28;20115;-70
2022/06/14 08:02:19;;;;;;;5.97;1.52;;;;;;;19.63;42.01;102545.09;5052773;28;20033;-70
2022/06/14 08:04:57;;;;;;;7.07;1.25;;;;;;;19.68;43.37;102551.72;5052670;28;20173;-71
2022/06/14 08:07:25;;;;;;;4.50;1.50;;;;;;;19.75;44.21;102543.88;5052564;28;20125;-70
2022/06/14 08:09:56;;;;;;;3.30;1.40;;;;;;;19.90;42.06;102545.00;5052120;28;20437;-70
2022/06/14 08:12:30;;;;;;;;;;;;;;;20.06;43.17;102538.84;5052581;28;20037;-71
2022/06/14 08:15:01;;;;;;;11.68;2.05;;;;;;;20.19;41.36;102532.97;5052313;28;19988;-71
2022/06/14 08:17:47;;;;;;;;;;;;;;;20.39;43.25;102535.44;5052820;28;20074;-70
2022/06/14 08:20:22;;;;;;;4.18;1.60;;;;;;;20.65;41.59;102537.22;5051889;28;19919;-70
2022/06/14 08:22:53;;;;;;;4.43;1.55;;;;;;;20.64;40.22;102525.53;5052272;28;20028;-70
2022/06/14 08:25:24;;;;;;;3.40;1.63;;;;;;;20.66;43.43;102528.13;5051945;28;20353;-70
2022/06/14 08:27:58;;;;;;;6.23;1.67;;;;;;;20.89;41.76;102522.94;5052193;28;20433;-71
2022/06/14 08:30:31;;;;;;;6.55;1.70;;;;;;;20.85;38.73;102519.69;5051911;28;20027;-70
2022/06/14 08:33:24;;;;;;;5.07;1.60;;;;;;;20.69;40.49;102514.25;5052014;28;20057;-71
2022/06/14 08:35:57;;;;;;;4.80;1.38;;;;;;;20.59;40.53;102517.09;5047352;28;20037;-71
2022/06/14 08:38:32;;;;;;;5.03;1.73;;;;;;;20.95;41.47;102508.72;5051685;28;20069;-71
2022/06/14 08:41:25;;;;;;;4.35;1.90;;;;;;;21.19;40.83;102515.19;5051719;28;20087;-70
2022/06/14 08:43:57;;;;;;;8.32;2.15;;;;;;;21.59;41.17;102510.78;5051830;28;20052;-71
2022/06/14 08:46:47;;;;;;;5.78;1.95;;;;;;;22.02;39.30;102506.75;5051923;28;20099;-71
2022/06/14 08:49:44;;;;;;;3.78;1.88;;;;;;;22.46;38.56;102502.69;5052260;28;20094;-70
2022/06/14 08:52:15;;;;;;;5.32;1.70;;;;;;;22.99;35.61;102510.16;5051871;28;20029;-70
2022/06/14 08:55:00;;;;;;;3.63;1.55;;;;;;;23.82;35.15;102505.66;5050032;28;20037;-71
2022/06/14 08:58:04;;;;;;;3.95;1.65;;;;;;;24.40;34.38;102499.56;5052057;28;20447;-71
2022/06/14 09:00:32;;;;;;;5.97;2.15;;;;;;;25.17;32.40;102500.78;5051298;28;20112;-70
2022/06/14 09:03:06;;;;;;;5.85;2.28;;;;;;;25.67;32.03;102507.03;5051603;28;20068;-70
2022/06/14 09:06:04;;;;;;;4.45;1.85;;;;;;;25.62;29.90;102504.09;5049785;28;20037;-70
2022/06/14 09:09:21;;;;;;;3.67;1.88;;;;;;;26.37;31.11;102492.53;5050129;28;20477;-70
2022/06/14 09:12:09;;;;;;;8.73;2.10;;;;;;;26.86;30.73;102483.22;5045313;28;20045;-70
2022/06/14 09:15:12;;;;;;;8.52;2.05;;;;;;;27.13;28.54;102485.94;5051329;28;20105;-70
2022/06/14 09:18:12;;;;;;;10.10;1.95;;;;;;;28.00;28.27;102485.00;5049387;28;20057;-70
2022/06/14 09:20:45;;;;;;;4.20;1.77;;;;;;;27.93;27.47;102480.38;5051465;28;20112;-69
2022/06/14 09:23:38;;;;;;;5.93;2.08;;;;;;;28.57;26.99;102474.16;5050746;28;20032;-70
2022/06/14 09:26:09;;;;;;;6.03;2.05;;;;;;;28.62;27.74;102480.69;5051433;28;20043;-70
2022/06/14 09:28:53;;;;;;;4.40;1.92;;;;;;;28.24;28.43;102488.88;5051936;28;20028;-69
2022/06/14 09:31:56;;;;;;;4.65;1.80;;;;;;;27.10;29.21;102472.72;5051644;28;20025;-70
2022/06/14 09:34:59;;;;;;;8.35;2.72;;;;;;;24.97;32.86;102485.09;5051211;28;20481;-70
2022/06/14 09:37:46;;;;;;;8.73;2.00;;;;;;;25.02;33.16;102480.94;5051082;28;20052;-70
2022/06/14 09:40:32;;;;;;;5.57;2.17;;;;;;;26.24;29.72;102473.38;5050867;28;20025;-70
2022/06/14 09:43:08;;;;;;;5.65;1.98;;;;;;;25.56;32.04;102479.50;5050650;28;20036;-70
2022/06/14 09:45:51;;;;;;;5.00;2.00;;;;;;;24.35;32.80;102472.06;5050856;28;20044;-70
2022/06/14 09:48:34;;;;;;;5.18;2.17;;;;;;;23.00;34.66;102473.84;5050932;28;20033;-70
2022/06/14 09:51:54;;;;;;;4.88;2.15;;;;;;;22.53;37.02;102475.72;5050769;28;20029;-71
2022/06/14 09:54:47;;;;;;;5.82;2.50;;;;;;;22.34;36.56;102474.31;5041445;28;20120;-71
2022/06/14 09:57:30;;;;;;;4.93;2.05;;;;;;;23.46;34.74;102472.97;5050331;28;20071;-72
2022/06/14 10:00:09;;;;;;;8.90;2.40;;;;;;;26.29;31.09;102462.69;5050296;28;20032;-72
2022/06/14 10:02:56;;;;;;;4.28;1.73;;;;;;;28.71;27.94;102455.78;5050028;28;20032;-71
2022/06/14 10:06:01;;;;;;;6.70;2.53;;;;;;;29.85;24.81;102453.66;5050049;28;20074;-71
2022/06/14 10:08:41;;;;;;;6.30;2.20;;;;;;;30.75;24.87;102457.50;5050232;28;20029;-73
2022/06/14 10:11:24;;;;;;;6.78;2.17;;;;;;;30.68;25.70;102448.53;5050164;28;20464;-71
2022/06/14 10:13:49;;;;;;;6.03;1.58;;;;;;;30.38;24.74;102459.50;5050385;28;20044;-71
2022/06/14 10:16:27;;;;;;;2.45;1.50;;;;;;;30.35;24.77;102455.34;5048649;28;20102;-71
2022/06/14 10:19:20;;;;;;;4.63;1.83;;;;;;;30.89;24.20;102451.78;5049778;28;20025;-71
2022/06/14 10:22:30;;;;;;;6.43;1.80;;;;;;;30.79;24.91;102448.78;5049825;28;20033;-71
2022/06/14 10:24:59;;;;;;;2.92;1.50;;;;;;;30.77;24.67;102440.78;5049737;28;20037;-72
2022/06/14 10:30:37;;;;;;;3.30;1.40;;;;;;;26.53;29.93;102440.28;5049970;28;20096;-71
2022/06/14 10:33:34;;;;;;;5.80;1.60;;;;;;;24.55;33.27;102442.38;5049831;28;20033;-71
2022/06/14 10:36:16;;;;;;;5.28;1.50;;;;;;;23.41;34.44;102440.94;5049518;28;20025;-72
2022/06/14 10:39:00;;;;;;;4.53;1.58;;;;;;;22.95;37.03;102451.84;5049640;28;20078;-72
2022/06/14 10:41:38;;;;;;;5.22;1.80;;;;;;;22.92;36.63;102444.91;5049982;28;20041;-70
2022/06/14 10:44:20;;;;;;;4.72;1.60;;;;;;;24.36;34.66;102444.69;5049737;28;20025;-70
2022/06/14 10:46:59;;;;;;;3.63;1.80;;;;;;;24.85;32.79;102439.56;5049864;28;20025;-70
2022/06/14 10:49:39;;;;;;;5.50;1.70;;;;;;;24.39;34.42;102446.19;5049357;28;20430;-70
2022/06/14 10:52:21;;;;;;;4.32;1.63;;;;;;;23.82;34.49;102437.72;5049489;28;20037;-71
2022/06/14 10:55:11;;;;;;;3.30;1.52;;;;;;;23.73;35.82;102439.69;5049224;28;20441;-71
2022/06/14 10:58:15;;;;;;;4.20;1.63;;;;;;;24.41;34.03;102430.53;5049305;28;20027;-70
2022/06/14 11:00:54;;;;;;;3.97;1.60;;;;;;;26.12;32.47;102433.03;5048400;28;20098;-70
2022/06/14 11:03:55;;;;;;;4.18;1.58;;;;;;;28.12;29.13;102428.53;5050039;28;20082;-71
2022/06/14 11:06:39;;;;;;;5.78;2.03;;;;;;;29.70;26.63;102425.75;5037226;28;20041;-71
2022/06/14 11:09:26;;;;;;;3.80;1.67;;;;;;;29.76;25.51;102424.84;5049774;28;20056;-71
2022/06/14 11:12:33;;;;;;;6.18;1.80;;;;;;;29.83;27.19;102422.06;5049954;28;20166;-70
2022/06/14 11:15:10;;;;;;;5.53;1.65;;;;;;;29.11;25.92;102419.81;5041582;28;20093;-72
2022/06/14 11:17:47;;;;;;;5.82;1.67;;;;;;;27.14;28.55;102415.75;5050109;28;20114;-70
2022/06/14 11:20:12;;;;;;;4.45;1.70;;;;;;;26.07;31.08;102421.91;5049168;28;20028;-70
2022/06/14 11:23:12;;;;;;;4.47;2.00;;;;;;;24.85;31.32;102425.94;5047858;28;20441;-70
2022/06/14 11:25:50;;;;;;;4.80;2.00;;;;;;;24.09;34.83;102414.50;5046050;28;20342;-70
2022/06/14 11:28:53;;;;;;;4.43;1.77;;;;;;;23.61;36.57;102413.22;5049307;28;20033;-70
2022/06/14 11:31:33;;;;;;;4.90;1.75;;;;;;;23.38;37.32;102411.44;5049434;28;20399;-71
2022/06/14 11:34:07;;;;;;;4.38;1.90;;;;;;;23.19;37.38;102413.66;5049165;28;20037;-71
2022/06/14 11:36:38;;;;;;;3.33;1.73;;;;;;;22.75;37.40;102419.78;5049168;28;20044;-70
2022/06/14 11:39:22;;;;;;;4.13;1.80;;;;;;;22.59;37.74;102409.06;5048871;28;20025;-70
2022/06/14 11:41:49;;;;;;;5.53;1.90;;;;;;;22.62;37.42;102412.25;5049341;28;20122;-70
2022/06/14 11:44:53;;;;;;;5.10;1.63;;;;;;;22.98;38.15;102405.34;5049129;28;20119;-71
2022/06/14 11:47:47;;;;;;;4.55;1.70;;;;;;;23.24;36.67;102408.50;5050377;28;20036;-71
2022/06/14 11:50:31;;;;;;;5.50;2.00;;;;;;;23.70;36.36;102406.63;5051614;28;20044;-73
2022/06/14 11:53:34;;;;;;;9.15;2.30;;;;;;;23.94;35.61;102405.50;5052607;28;20101;-70
2022/06/14 11:56:21;;;;;;;5.85;2.17;;;;;;;24.44;36.06;102395.59;5038569;28;20140;-69
2022/06/14 11:59:16;;;;;;;3.25;1.92;;;;;;;25.83;33.79;102401.47;5052369;28;20111;-70
2022/06/14 12:02:00;;;;;;;3.67;1.92;;;;;;;27.18;31.41;102390.53;5052626;28;20057;-71
2022/06/14 12:04:40;;;;;;;5.63;1.77;;;;;;;27.03;29.45;102390.75;5052898;28;20135;-73
2022/06/14 12:07:29;;;;;;;4.35;2.10;;;;;;;27.20;30.45;102393.06;5052561;28;20441;-73
2022/06/14 12:10:32;;;;;;;3.67;1.88;;;;;;;26.19;31.68;102393.00;5052721;28;20071;-74
2022/06/14 12:13:00;;;;;;;4.95;2.10;;;;;;;25.94;31.36;102383.66;5052960;28;20385;-71
2022/06/14 12:16:03;;;;;;;3.75;2.15;;;;;;;27.10;30.01;102385.31;5052577;28;20414;-71
2022/06/14 12:18:33;;;;;;;6.45;2.00;;;;;;;27.96;29.38;102381.50;5052304;28;20085;-70
2022/06/14 12:21:10;;;;;;;5.30;1.77;;;;;;;28.22;29.50;102378.84;5052788;28;20103;-70
2022/06/14 12:23:48;;;;;;;3.53;1.80;;;;;;;28.76;28.85;102374.63;5052480;28;20096;-71
2022/06/14 12:26:35;;;;;;;9.65;1.77;;;;;;;28.16;29.42;102369.59;5052383;28;20036;-70
2022/06/14 12:29:07;;;;;;;2.97;1.70;;;;;;;28.73;27.10;102372.34;5052533;28;20037;-70
2022/06/14 12:31:54;;;;;;;3.38;2.00;;;;;;;28.64;27.30;102363.56;5052119;28;20037;-70